Time;durP1;ratioP1;P1;durP2;ratioP2;P2;SDS_P1;SDS_P2;PMS_P1;PMS_P2;Temp;Humidity;BMP_temperature;BMP_pressure;BME280_temperature;BME280_humidity;BME280_pressure;Samples;Min_cycle;Max_cycle;Signal;HPM_P1;HPM_P2
2021/08/03 00:01:36;;;;;;;4.50;2.78;;;16.40;99.90;;;;;;4160725;28;20374;-71
2021/08/03 00:03:39;;;;;;;3.58;2.80;;;16.40;99.90;;;;;;4149018;28;20096;-71
2021/08/03 00:05:48;;;;;;;4.80;2.90;;;16.40;99.90;;;;;;4143659;28;20042;-71
2021/08/03 00:07:49;;;;;;;5.13;3.30;;;16.40;99.90;;;;;;4161276;28;20061;-71
2021/08/03 00:09:51;;;;;;;5.65;3.38;;;16.40;99.90;;;;;;4146820;28;20425;-71
2021/08/03 00:11:54;;;;;;;3.85;3.42;;;16.30;99.90;;;;;;4144340;28;20093;-71
2021/08/03 00:13:55;;;;;;;4.50;3.65;;;16.30;99.90;;;;;;4144366;28;20034;-71
2021/08/03 00:16:03;;;;;;;4.75;3.78;;;16.20;99.90;;;;;;4144340;28;20125;-71
2021/08/03 00:18:04;;;;;;;7.45;3.75;;;16.20;99.90;;;;;;4126716;28;20100;-71
2021/08/03 00:20:05;;;;;;;4.55;3.53;;;16.20;99.90;;;;;;4149057;28;20030;-71
2021/08/03 00:22:07;;;;;;;5.82;4.10;;;16.20;99.90;;;;;;4143683;28;20030;-71
2021/08/03 00:24:07;;;;;;;4.32;3.88;;;16.20;99.90;;;;;;4150342;28;20036;-71
2021/08/03 00:26:13;;;;;;;7.20;4.57;;;16.20;99.90;;;;;;4160657;28;20402;-71
2021/08/03 00:28:14;;;;;;;6.03;4.80;;;16.30;99.90;;;;;;4155885;28;20034;-71
2021/08/03 00:30:15;;;;;;;4.88;3.78;;;16.30;99.90;;;;;;4148724;28;20092;-71
2021/08/03 00:32:17;;;;;;;4.28;3.55;;;16.30;99.90;;;;;;4143876;28;20042;-71
2021/08/03 00:34:18;;;;;;;4.00;3.53;;;16.30;99.90;;;;;;4126868;28;20030;-71
2021/08/03 00:36:19;;;;;;;4.60;3.63;;;16.30;99.90;;;;;;4144162;28;20065;-71
2021/08/03 00:38:20;;;;;;;5.35;4.38;;;16.30;99.90;;;;;;4143735;28;20125;-72
2021/08/03 00:40:24;;;;;;;3.50;2.95;;;16.30;99.90;;;;;;4158230;28;20021;-71
2021/08/03 00:42:25;;;;;;;5.50;3.80;;;16.30;99.90;;;;;;4142541;28;20556;-71
2021/08/03 00:44:49;;;;;;;4.00;3.45;;;16.30;99.90;;;;;;4152218;28;20105;-71
2021/08/03 00:46:49;;;;;;;5.00;3.08;;;16.30;99.90;;;;;;4132475;28;20034;-71
2021/08/03 00:48:50;;;;;;;4.18;2.97;;;16.30;99.90;;;;;;4143633;28;20474;-71
2021/08/03 00:50:51;;;;;;;5.28;3.00;;;16.30;99.90;;;;;;4160452;28;20032;-71
2021/08/03 00:52:51;;;;;;;3.33;2.67;;;16.20;99.90;;;;;;4160097;28;20029;-71
2021/08/03 00:54:52;;;;;;;4.90;3.10;;;16.30;99.90;;;;;;4151553;28;20061;-71
2021/08/03 00:56:52;;;;;;;3.55;2.63;;;16.20;99.90;;;;;;4143622;28;20111;-71
2021/08/03 00:58:53;;;;;;;3.85;2.90;;;16.20;99.90;;;;;;4143648;28;20069;-71
2021/08/03 01:00:55;;;;;;;3.63;2.70;;;16.20;99.90;;;;;;4159217;28;20037;-71
2021/08/03 01:02:57;;;;;;;3.83;2.72;;;16.20;99.90;;;;;;4141959;28;20036;-71
2021/08/03 01:04:58;;;;;;;4.47;2.88;;;16.20;99.90;;;;;;4153749;28;20034;-70
2021/08/03 01:07:01;;;;;;;2.95;2.33;;;16.20;99.90;;;;;;4159669;28;20481;-71
2021/08/03 01:09:08;;;;;;;4.75;3.17;;;16.20;99.90;;;;;;4157000;28;20034;-71
2021/08/03 01:11:24;;;;;;;4.05;3.05;;;16.20;99.90;;;;;;4118750;28;20081;-70
2021/08/03 01:14:01;;;;;;;3.78;2.63;;;16.20;99.90;;;;;;4142109;28;20034;-71
2021/08/03 01:16:31;;;;;;;3.28;2.72;;;16.20;99.90;;;;;;4156424;28;20092;-71
2021/08/03 01:18:42;;;;;;;3.53;3.17;;;16.10;99.90;;;;;;4126691;28;20506;-71
2021/08/03 01:21:03;;;;;;;4.28;2.95;;;16.10;99.90;;;;;;4126954;28;20521;-71
2021/08/03 01:23:37;;;;;;;4.50;2.97;;;16.10;99.90;;;;;;4142498;28;20050;-71
2021/08/03 01:26:03;;;;;;;6.00;2.92;;;16.10;99.90;;;;;;4139609;28;20522;-71
2021/08/03 01:28:21;;;;;;;5.28;3.40;;;16.10;99.90;;;;;;4141751;28;20148;-71
2021/08/03 01:30:24;;;;;;;3.75;3.10;;;16.10;99.90;;;;;;4148915;28;20030;-71
2021/08/03 01:32:34;;;;;;;5.10;3.72;;;16.00;99.90;;;;;;4143410;28;20040;-71
2021/08/03 01:34:40;;;;;;;5.63;3.80;;;16.00;99.90;;;;;;4142870;28;20025;-71
2021/08/03 01:36:46;;;;;;;6.30;3.60;;;16.00;99.90;;;;;;4159393;28;20244;-71
2021/08/03 01:38:48;;;;;;;5.18;3.65;;;16.00;99.90;;;;;;4159437;28;20099;-71
2021/08/03 01:40:50;;;;;;;4.60;3.42;;;16.00;99.90;;;;;;4149087;28;20038;-71
2021/08/03 01:42:51;;;;;;;;;;;16.00;99.90;;;;;;4143477;28;20498;-71
2021/08/03 01:44:53;;;;;;;4.63;2.72;;;16.00;99.90;;;;;;4144420;28;19920;-71
2021/08/03 01:46:56;;;;;;;3.35;3.05;;;16.10;99.90;;;;;;4159675;28;20199;-71
2021/08/03 01:49:01;;;;;;;5.57;3.13;;;16.00;99.90;;;;;;4159400;28;20449;-71
2021/08/03 01:51:02;;;;;;;3.75;2.83;;;16.00;99.90;;;;;;4148742;28;20223;-71
2021/08/03 01:53:03;;;;;;;3.78;2.90;;;16.00;99.90;;;;;;4125099;28;20030;-71
2021/08/03 01:55:06;;;;;;;5.25;3.38;;;16.00;99.90;;;;;;4126699;28;20388;-71
2021/08/03 01:57:08;;;;;;;4.65;3.33;;;16.00;99.90;;;;;;4147650;28;20524;-71
2021/08/03 01:59:09;;;;;;;3.28;2.90;;;16.00;99.90;;;;;;4142756;28;20040;-70
2021/08/03 02:01:12;;;;;;;6.07;2.97;;;16.00;99.90;;;;;;4152779;28;20397;-71
2021/08/03 02:03:14;;;;;;;4.45;2.70;;;16.00;99.90;;;;;;4158693;28;20033;-71
2021/08/03 02:05:16;;;;;;;4.00;3.03;;;16.00;99.90;;;;;;4157488;28;20441;-71
2021/08/03 02:07:20;;;;;;;3.45;2.80;;;16.00;99.90;;;;;;4142999;28;20041;-71
2021/08/03 02:09:22;;;;;;;4.38;3.20;;;16.00;99.90;;;;;;4124822;28;20066;-71
2021/08/03 02:11:27;;;;;;;6.30;3.17;;;16.00;99.90;;;;;;4152947;28;20053;-71
2021/08/03 02:13:29;;;;;;;4.00;3.42;;;16.00;99.90;;;;;;4124717;28;20092;-71
2021/08/03 02:15:30;;;;;;;5.00;3.57;;;16.10;99.90;;;;;;4144468;28;20042;-71
2021/08/03 02:17:31;;;;;;;5.00;3.05;;;16.10;99.90;;;;;;4146894;28;20320;-71
2021/08/03 02:19:34;;;;;;;4.75;3.40;;;16.10;99.90;;;;;;4142331;28;20068;-71
2021/08/03 02:21:35;;;;;;;4.88;3.20;;;16.10;99.90;;;;;;4152865;28;20044;-71
2021/08/03 02:23:35;;;;;;;3.28;2.95;;;16.10;99.90;;;;;;4157743;28;20349;-71
2021/08/03 02:25:36;;;;;;;7.43;3.70;;;16.00;99.90;;;;;;4144034;28;20446;-71
2021/08/03 02:27:38;;;;;;;4.68;3.33;;;16.10;99.90;;;;;;4142244;28;20042;-71
2021/08/03 02:29:40;;;;;;;4.45;3.42;;;16.10;99.90;;;;;;4142588;28;20108;-71
2021/08/03 02:31:52;;;;;;;5.03;3.33;;;16.10;99.90;;;;;;4152030;28;20029;-71
2021/08/03 02:33:59;;;;;;;3.85;3.00;;;16.10;99.90;;;;;;4146236;28;20034;-71
2021/08/03 02:36:06;;;;;;;3.85;3.33;;;16.10;99.90;;;;;;4145769;28;20034;-71
2021/08/03 02:38:10;;;;;;;3.90;2.97;;;16.10;99.90;;;;;;4144153;28;20343;-71
2021/08/03 02:40:11;;;;;;;4.47;3.28;;;16.10;99.90;;;;;;4142208;28;20441;-71
2021/08/03 02:42:12;;;;;;;5.03;3.33;;;16.10;99.90;;;;;;4154846;28;20043;-71
2021/08/03 02:44:13;;;;;;;4.35;3.20;;;16.10;99.90;;;;;;4144328;28;20042;-71
2021/08/03 02:46:16;;;;;;;5.22;3.60;;;16.10;99.90;;;;;;4146906;28;20470;-71
2021/08/03 02:48:20;;;;;;;6.93;4.07;;;16.10;99.90;;;;;;4140963;28;20037;-71
2021/08/03 02:50:23;;;;;;;5.20;3.40;;;16.10;99.90;;;;;;4144238;28;20061;-71
2021/08/03 02:52:27;;;;;;;6.03;3.30;;;16.10;99.90;;;;;;4155151;28;20037;-71
2021/08/03 02:54:33;;;;;;;4.95;3.70;;;16.10;99.90;;;;;;4158102;28;20041;-71
2021/08/03 02:56:34;;;;;;;5.22;3.70;;;16.20;99.90;;;;;;4135031;28;20065;-71
2021/08/03 02:58:43;;;;;;;6.30;3.85;;;16.20;99.90;;;;;;4124454;28;20042;-71
2021/08/03 03:00:45;;;;;;;6.68;3.70;;;16.10;99.90;;;;;;4124689;28;20458;-71
2021/08/03 03:02:47;;;;;;;4.22;3.10;;;16.10;99.90;;;;;;4142005;28;20544;-71
2021/08/03 03:04:59;;;;;;;6.13;3.78;;;16.20;99.90;;;;;;4141494;28;20026;-71
2021/08/03 03:07:12;;;;;;;6.35;4.20;;;16.10;99.90;;;;;;4124401;28;20092;-71
2021/08/03 03:09:13;;;;;;;4.35;3.47;;;16.10;99.90;;;;;;4125529;28;20031;-71
2021/08/03 03:11:16;;;;;;;4.57;3.80;;;16.10;99.90;;;;;;4142078;28;20393;-71
2021/08/03 03:13:22;;;;;;;5.20;4.03;;;16.10;99.90;;;;;;4140849;28;20550;-71
2021/08/03 03:15:24;;;;;;;4.40;3.70;;;16.10;99.90;;;;;;4158259;28;20030;-71
2021/08/03 03:17:29;;;;;;;4.65;3.72;;;16.10;99.90;;;;;;4148057;28;20030;-71
2021/08/03 03:19:33;;;;;;;4.40;3.72;;;16.10;99.90;;;;;;4141659;28;20049;-71
2021/08/03 03:21:35;;;;;;;4.85;3.60;;;16.20;99.90;;;;;;4141062;28;20557;-71
2021/08/03 03:23:36;;;;;;;4.85;3.50;;;16.20;99.90;;;;;;4124596;28;20113;-71
2021/08/03 03:25:37;;;;;;;5.45;3.55;;;16.20;99.90;;;;;;4135184;28;20044;-71
2021/08/03 03:27:38;;;;;;;5.97;4.18;;;16.20;99.90;;;;;;4132482;28;20046;-71
2021/08/03 03:29:39;;;;;;;4.57;3.72;;;16.20;99.90;;;;;;4133644;28;20030;-71
2021/08/03 03:31:41;;;;;;;4.93;3.88;;;16.20;99.90;;;;;;4135889;28;20688;-71
2021/08/03 03:33:42;;;;;;;4.60;3.83;;;16.20;99.90;;;;;;4120934;28;20049;-71
2021/08/03 03:35:46;;;;;;;6.55;4.43;;;16.20;99.90;;;;;;4133222;28;20269;-71
2021/08/03 03:37:47;;;;;;;5.90;4.32;;;16.20;99.90;;;;;;4134579;28;20054;-71
2021/08/03 03:39:48;;;;;;;5.78;4.32;;;16.20;99.90;;;;;;4132991;28;20045;-71
2021/08/03 03:41:53;;;;;;;4.15;3.63;;;16.20;99.90;;;;;;4133130;28;20478;-71
2021/08/03 03:43:54;;;;;;;4.68;3.67;;;16.30;99.90;;;;;;4133092;28;20100;-71
2021/08/03 03:46:06;;;;;;;4.65;3.83;;;16.30;99.90;;;;;;4115811;28;20023;-71
2021/08/03 03:48:10;;;;;;;4.40;3.60;;;16.30;99.90;;;;;;4132303;28;20528;-71
2021/08/03 03:50:22;;;;;;;5.20;3.80;;;16.20;99.90;;;;;;4114924;28;20039;-71
2021/08/03 03:52:26;;;;;;;6.47;4.15;;;16.20;99.90;;;;;;4124666;28;20030;-71
2021/08/03 03:54:30;;;;;;;8.48;4.82;;;16.20;99.90;;;;;;4133931;28;20038;-70
2021/08/03 03:56:39;;;;;;;5.30;4.00;;;16.20;99.90;;;;;;4131533;28;20034;-71
2021/08/03 03:58:43;;;;;;;6.30;4.32;;;16.20;99.90;;;;;;4134649;28;20367;-71
2021/08/03 04:00:45;;;;;;;5.82;4.13;;;16.30;99.90;;;;;;4132321;28;20076;-71
2021/08/03 04:02:49;;;;;;;5.32;3.85;;;16.20;99.90;;;;;;4132184;28;20377;-71
2021/08/03 04:04:51;;;;;;;6.78;4.90;;;16.20;99.90;;;;;;4123012;28;20030;-71
2021/08/03 04:06:51;;;;;;;6.60;4.57;;;16.20;99.90;;;;;;4140890;28;20045;-71
2021/08/03 04:08:52;;;;;;;8.02;4.93;;;16.20;99.90;;;;;;4140345;28;20026;-71
2021/08/03 04:11:00;;;;;;;9.48;5.32;;;16.20;99.90;;;;;;4139682;28;20034;-71
2021/08/03 04:13:02;;;;;;;6.97;4.50;;;16.20;99.90;;;;;;4148215;28;20289;-71
2021/08/03 04:15:03;;;;;;;8.10;4.97;;;16.20;99.90;;;;;;4142305;28;20034;-71
2021/08/03 04:17:07;;;;;;;7.32;5.03;;;16.20;99.90;;;;;;4123706;28;20062;-71
2021/08/03 04:19:07;;;;;;;6.70;4.30;;;16.20;99.90;;;;;;4156935;28;20045;-71
2021/08/03 04:21:08;;;;;;;8.43;4.60;;;16.20;99.90;;;;;;4157602;28;20525;-71
2021/08/03 04:23:08;;;;;;;8.60;4.95;;;16.20;99.90;;;;;;4125226;28;20035;-71
2021/08/03 04:25:09;;;;;;;5.80;4.63;;;16.20;99.90;;;;;;4141039;28;20477;-71
2021/08/03 04:27:10;;;;;;;10.35;5.32;;;16.20;99.90;;;;;;4141049;28;20042;-70
2021/08/03 04:29:11;;;;;;;8.40;5.45;;;16.20;99.90;;;;;;4144482;28;20107;-70
2021/08/03 04:31:11;;;;;;;8.05;4.78;;;16.20;99.90;;;;;;4123819;28;20442;-71
2021/08/03 04:33:12;;;;;;;6.65;4.85;;;16.20;99.90;;;;;;4139257;28;20037;-71
2021/08/03 04:35:13;;;;;;;6.82;4.68;;;16.20;99.90;;;;;;4132863;28;20045;-70
2021/08/03 04:37:13;;;;;;;6.95;4.07;;;16.20;99.90;;;;;;4123313;28;20034;-70
2021/08/03 04:39:14;;;;;;;7.15;4.35;;;16.10;99.90;;;;;;4117630;28;20069;-70
2021/08/03 04:41:14;;;;;;;7.57;4.03;;;16.10;99.90;;;;;;4135668;28;20113;-70
2021/08/03 04:43:15;;;;;;;6.38;4.60;;;16.10;99.90;;;;;;4141680;28;20050;-70
2021/08/03 04:45:16;;;;;;;6.55;4.40;;;16.10;99.90;;;;;;4127935;28;20030;-70
2021/08/03 04:47:17;;;;;;;5.65;4.38;;;16.10;99.90;;;;;;4128322;28;20034;-70
2021/08/03 04:49:17;;;;;;;6.28;4.45;;;16.10;99.90;;;;;;4141095;28;20073;-71
2021/08/03 04:51:18;;;;;;;8.23;4.65;;;16.10;99.90;;;;;;4125559;28;20038;-71
2021/08/03 04:53:18;;;;;;;7.13;4.78;;;16.10;99.90;;;;;;4147819;28;20119;-71
2021/08/03 04:55:19;;;;;;;5.57;4.20;;;16.10;99.90;;;;;;4142370;28;20114;-71
2021/08/03 04:57:19;;;;;;;10.43;5.43;;;16.10;99.90;;;;;;4160394;28;20072;-71
2021/08/03 04:59:20;;;;;;;6.90;4.88;;;16.10;99.90;;;;;;4145877;28;20437;-71
2021/08/03 05:01:21;;;;;;;8.93;4.93;;;16.10;99.90;;;;;;4134930;28;20157;-71
2021/08/03 05:03:21;;;;;;;9.27;5.30;;;16.10;99.90;;;;;;4132633;28;20045;-71
2021/08/03 05:05:22;;;;;;;8.73;5.72;;;16.10;99.90;;;;;;4143192;28;20062;-71
2021/08/03 05:07:23;;;;;;;7.75;5.15;;;16.00;99.90;;;;;;4125928;28;21227;-71
2021/08/03 05:09:24;;;;;;;8.88;5.05;;;16.00;99.90;;;;;;4143014;28;20033;-71
2021/08/03 05:11:24;;;;;;;7.68;5.25;;;16.10;99.90;;;;;;4143192;28;20116;-71
2021/08/03 05:13:25;;;;;;;7.25;4.95;;;16.10;99.90;;;;;;4145365;28;20041;-71
2021/08/03 05:15:26;;;;;;;9.70;5.53;;;16.10;99.90;;;;;;4159883;28;20112;-71
2021/08/03 05:17:29;;;;;;;7.07;4.80;;;16.10;99.90;;;;;;4138211;28;20073;-71
2021/08/03 05:19:29;;;;;;;7.07;4.45;;;16.10;99.90;;;;;;4142366;28;20092;-71
2021/08/03 05:21:30;;;;;;;6.93;5.10;;;16.20;99.90;;;;;;4125376;28;20046;-71
2021/08/03 05:23:30;;;;;;;6.80;4.40;;;16.20;99.90;;;;;;4114768;28;20526;-71
2021/08/03 05:25:31;;;;;;;7.38;5.25;;;16.20;99.90;;;;;;4109339;28;20038;-71
2021/08/03 05:27:32;;;;;;;9.68;4.78;;;16.20;99.90;;;;;;4139952;28;20062;-71
2021/08/03 05:29:32;;;;;;;6.95;4.35;;;16.20;99.90;;;;;;4122078;28;20042;-71
2021/08/03 05:31:33;;;;;;;7.65;4.65;;;16.20;99.90;;;;;;4130638;28;20554;-71
2021/08/03 05:33:33;;;;;;;8.15;4.63;;;16.30;99.90;;;;;;4134648;28;20091;-71
2021/08/03 05:35:36;;;;;;;6.43;4.75;;;16.30;99.90;;;;;;4127492;28;20239;-71
2021/08/03 05:37:36;;;;;;;6.57;4.90;;;16.30;99.90;;;;;;4122552;28;20510;-71
2021/08/03 05:39:37;;;;;;;8.30;5.22;;;16.30;99.90;;;;;;4143029;28;20045;-71
2021/08/03 05:41:38;;;;;;;6.82;5.20;;;16.30;99.90;;;;;;4117135;28;20055;-71
2021/08/03 05:43:38;;;;;;;7.93;6.05;;;16.40;99.90;;;;;;4139133;28;20051;-71
2021/08/03 05:45:40;;;;;;;9.10;5.82;;;16.40;99.90;;;;;;4135293;28;20192;-71
2021/08/03 05:47:41;;;;;;;7.45;5.22;;;16.40;99.90;;;;;;4126034;28;20483;-71
2021/08/03 05:49:42;;;;;;;10.95;6.38;;;16.40;99.90;;;;;;4125783;28;20044;-71
2021/08/03 05:51:42;;;;;;;7.35;5.20;;;16.40;99.90;;;;;;4136993;28;20360;-71
2021/08/03 05:53:43;;;;;;;10.73;6.35;;;16.40;99.90;;;;;;4108752;28;20114;-71
2021/08/03 05:55:43;;;;;;;6.72;5.50;;;16.50;99.90;;;;;;4125869;28;20034;-71
2021/08/03 05:57:44;;;;;;;8.90;6.30;;;16.50;99.90;;;;;;4127336;28;20064;-72
2021/08/03 05:59:44;;;;;;;8.40;6.15;;;16.50;99.90;;;;;;4133944;28;20394;-71
2021/08/03 06:01:45;;;;;;;11.73;7.43;;;16.50;99.90;;;;;;4111004;28;20047;-71
2021/08/03 06:03:45;;;;;;;12.85;7.80;;;16.60;99.90;;;;;;4134501;28;20038;-71
2021/08/03 06:05:46;;;;;;;11.65;7.45;;;16.60;99.90;;;;;;4116057;28;20039;-71
2021/08/03 06:07:50;;;;;;;11.60;7.80;;;16.60;99.90;;;;;;4127397;28;20443;-71
2021/08/03 06:09:56;;;;;;;12.18;7.82;;;16.60;99.90;;;;;;4133212;28;20030;-71
2021/08/03 06:12:01;;;;;;;14.02;7.15;;;16.60;99.90;;;;;;4109580;28;20122;-71
2021/08/03 06:14:05;;;;;;;10.07;7.32;;;16.60;99.90;;;;;;4128051;28;20037;-71
2021/08/03 06:16:07;;;;;;;10.80;7.10;;;16.60;99.90;;;;;;4127877;28;20387;-71
2021/08/03 06:18:16;;;;;;;10.63;7.43;;;16.60;99.90;;;;;;4125927;28;20044;-71
2021/08/03 06:20:16;;;;;;;11.95;7.95;;;16.60;99.90;;;;;;4111505;28;20054;-71
2021/08/03 06:22:19;;;;;;;10.50;7.38;;;16.70;99.90;;;;;;4125030;28;20038;-71
2021/08/03 06:24:20;;;;;;;12.27;8.85;;;16.70;99.90;;;;;;4112773;28;20043;-71
2021/08/03 06:26:21;;;;;;;13.07;9.00;;;16.70;99.90;;;;;;4128718;28;20391;-71
2021/08/03 06:28:23;;;;;;;13.07;8.43;;;16.70;99.90;;;;;;4126518;28;20030;-71
2021/08/03 06:30:24;;;;;;;14.63;9.45;;;16.70;99.90;;;;;;4137438;28;20088;-71
2021/08/03 06:32:25;;;;;;;14.00;8.82;;;16.70;99.90;;;;;;4130707;28;20046;-71
2021/08/03 06:34:26;;;;;;;13.52;9.10;;;16.70;99.90;;;;;;4127465;28;20038;-71
2021/08/03 06:36:27;;;;;;;15.20;9.98;;;16.70;99.90;;;;;;4117320;28;20506;-71
2021/08/03 06:38:27;;;;;;;14.85;10.02;;;16.80;99.90;;;;;;4108744;28;20451;-71
2021/08/03 06:40:32;;;;;;;16.10;10.25;;;16.80;99.90;;;;;;4110162;28;20034;-71
2021/08/03 06:43:01;;;;;;;15.35;10.43;;;16.80;99.90;;;;;;4125933;28;20034;-71
2021/08/03 06:45:04;;;;;;;14.70;9.35;;;16.70;99.90;;;;;;4133139;28;20364;-71
2021/08/03 06:47:05;;;;;;;15.05;10.30;;;16.70;99.90;;;;;;4129691;28;20037;-71
2021/08/03 06:49:09;;;;;;;15.32;9.63;;;16.70;99.90;;;;;;4126095;28;20038;-71
2021/08/03 06:51:14;;;;;;;16.05;9.35;;;16.80;99.90;;;;;;4131668;28;20085;-71
2021/08/03 06:53:17;;;;;;;13.45;8.95;;;16.80;99.90;;;;;;4132511;28;20037;-71
2021/08/03 06:55:28;;;;;;;12.45;8.35;;;16.80;99.90;;;;;;4119320;28;20564;-71
2021/08/03 06:57:33;;;;;;;13.00;8.77;;;16.80;99.90;;;;;;4126795;28;20065;-71
2021/08/03 06:59:39;;;;;;;14.75;9.85;;;16.80;99.90;;;;;;4120648;28;20513;-71
2021/08/03 07:02:05;;;;;;;13.38;9.18;;;16.90;99.90;;;;;;4111884;28;20067;-71
2021/08/03 07:04:11;;;;;;;14.48;9.80;;;16.90;99.90;;;;;;4135987;28;20057;-71
2021/08/03 07:06:16;;;;;;;16.30;10.73;;;16.90;99.90;;;;;;4125782;28;20403;-71
2021/08/03 07:08:18;;;;;;;14.63;9.90;;;16.90;99.90;;;;;;4132766;28;20037;-71
2021/08/03 07:10:19;;;;;;;15.15;10.15;;;17.00;99.90;;;;;;4125592;28;20030;-71
2021/08/03 07:12:21;;;;;;;16.52;11.50;;;17.00;99.90;;;;;;4126208;28;20133;-71
2021/08/03 07:14:24;;;;;;;13.63;10.07;;;17.00;99.90;;;;;;4108304;28;20124;-71
2021/08/03 07:16:28;;;;;;;14.95;9.98;;;16.90;99.90;;;;;;4123053;28;20050;-71
2021/08/03 07:18:29;;;;;;;14.55;10.27;;;17.00;99.90;;;;;;4129318;28;20423;-71
2021/08/03 07:20:30;;;;;;;14.23;10.23;;;17.00;99.90;;;;;;4128546;28;20037;-71
2021/08/03 07:22:32;;;;;;;16.67;11.05;;;17.00;99.90;;;;;;4095506;28;20059;-71
2021/08/03 07:24:33;;;;;;;16.88;10.35;;;17.10;99.90;;;;;;4125265;28;20046;-71
2021/08/03 07:26:34;;;;;;;14.30;10.05;;;17.10;99.90;;;;;;4107996;28;20518;-71
2021/08/03 07:28:35;;;;;;;16.40;11.00;;;17.10;99.90;;;;;;4134340;28;20045;-72
2021/08/03 07:30:35;;;;;;;15.85;10.93;;;17.10;99.90;;;;;;4137993;28;20508;-71
2021/08/03 07:32:37;;;;;;;13.02;10.07;;;17.20;99.90;;;;;;4134549;28;20033;-71
2021/08/03 07:34:39;;;;;;;15.90;10.52;;;17.20;99.90;;;;;;4109691;28;20043;-71
2021/08/03 07:36:39;;;;;;;15.82;10.15;;;17.20;99.90;;;;;;4135981;28;20053;-71
2021/08/03 07:38:44;;;;;;;13.02;9.32;;;17.20;99.90;;;;;;4137748;28;20041;-71
2021/08/03 07:40:44;;;;;;;12.75;8.68;;;17.20;99.90;;;;;;4135467;28;20088;-71
2021/08/03 07:42:45;;;;;;;14.95;9.25;;;17.20;99.90;;;;;;4115529;28;20062;-71
2021/08/03 07:44:46;;;;;;;12.98;9.57;;;17.20;99.90;;;;;;4131206;28;20038;-71
2021/08/03 07:46:47;;;;;;;16.85;10.88;;;17.20;99.90;;;;;;4133770;28;20379;-71
2021/08/03 07:48:50;;;;;;;13.10;9.55;;;17.20;99.90;;;;;;4130219;28;20120;-71
2021/08/03 07:50:51;;;;;;;15.50;10.50;;;17.20;99.90;;;;;;4140004;28;20107;-71
2021/08/03 07:52:52;;;;;;;15.52;10.05;;;17.20;99.90;;;;;;4139769;28;20101;-71
2021/08/03 07:54:54;;;;;;;17.35;10.23;;;17.30;99.90;;;;;;4120471;28;20033;-71
2021/08/03 07:56:54;;;;;;;12.85;9.65;;;17.30;99.90;;;;;;4119675;28;20035;-71
2021/08/03 07:58:55;;;;;;;14.65;10.07;;;17.30;99.90;;;;;;4132844;28;20046;-71
2021/08/03 08:00:55;;;;;;;14.25;9.82;;;17.30;99.90;;;;;;4135618;28;20486;-71
2021/08/03 08:02:56;;;;;;;16.48;10.82;;;17.30;99.90;;;;;;4114824;28;20030;-72
2021/08/03 08:04:57;;;;;;;13.82;9.43;;;17.30;99.90;;;;;;4138184;28;20034;-71
2021/08/03 08:06:57;;;;;;;16.05;10.20;;;17.30;99.90;;;;;;4117191;28;20482;-71
2021/08/03 08:08:58;;;;;;;12.90;9.32;;;17.40;99.90;;;;;;4133481;28;20550;-71
2021/08/03 08:10:59;;;;;;;14.13;9.90;;;17.40;99.90;;;;;;4116100;28;20042;-71
2021/08/03 08:12:59;;;;;;;15.45;10.32;;;17.50;99.90;;;;;;4141340;28;20062;-71
2021/08/03 08:15:00;;;;;;;15.20;10.02;;;17.50;99.90;;;;;;4112712;28;20177;-71
2021/08/03 08:17:01;;;;;;;15.23;11.05;;;17.50;99.90;;;;;;4126610;28;20078;-71
2021/08/03 08:19:01;;;;;;;14.95;9.80;;;17.50;99.90;;;;;;4117099;28;20569;-71
2021/08/03 08:21:03;;;;;;;13.85;9.85;;;17.50;99.90;;;;;;4117242;28;20039;-71
2021/08/03 08:23:04;;;;;;;15.77;11.05;;;17.50;99.90;;;;;;4133959;28;20049;-72
2021/08/03 08:25:10;;;;;;;14.27;9.77;;;17.50;99.90;;;;;;4127857;28;20035;-72
2021/08/03 08:27:10;;;;;;;14.85;10.00;;;17.60;99.90;;;;;;4116908;28;20035;-72
2021/08/03 08:29:11;;;;;;;14.00;10.10;;;17.60;99.90;;;;;;4113668;28;20059;-72
2021/08/03 08:31:12;;;;;;;14.35;9.85;;;17.60;99.90;;;;;;4128174;28;20035;-71
2021/08/03 08:33:12;;;;;;;13.82;9.13;;;17.60;99.90;;;;;;4122534;28;20030;-71
2021/08/03 08:35:13;;;;;;;14.10;9.13;;;17.60;99.90;;;;;;4118953;28;20035;-71
2021/08/03 08:37:14;;;;;;;14.10;8.90;;;17.60;99.90;;;;;;4140800;28;20038;-71
2021/08/03 08:39:14;;;;;;;13.60;9.82;;;17.60;99.90;;;;;;4114942;28;20141;-71
2021/08/03 08:41:15;;;;;;;12.73;9.13;;;17.70;99.90;;;;;;4142363;28;20088;-71
2021/08/03 08:43:16;;;;;;;17.15;9.32;;;17.70;99.90;;;;;;4134732;28;20029;-71
2021/08/03 08:45:17;;;;;;;12.48;8.77;;;17.70;99.90;;;;;;4141510;28;20033;-71
2021/08/03 08:47:18;;;;;;;13.02;8.05;;;17.70;99.90;;;;;;4139647;28;20032;-71
2021/08/03 08:49:19;;;;;;;16.63;8.20;;;17.70;99.90;;;;;;4138485;28;20049;-71
2021/08/03 08:51:20;;;;;;;12.27;7.28;;;17.80;99.90;;;;;;4121777;28;20035;-71
2021/08/03 08:53:25;;;;;;;11.15;7.57;;;17.80;99.90;;;;;;4116793;28;20057;-71
2021/08/03 08:55:26;;;;;;;13.65;8.10;;;17.90;99.90;;;;;;4132075;28;20042;-71
2021/08/03 08:57:26;;;;;;;13.95;6.55;;;17.80;99.90;;;;;;4115116;28;20034;-71
2021/08/03 08:59:27;;;;;;;8.93;5.75;;;17.90;99.90;;;;;;4141316;28;20125;-71
2021/08/03 09:01:27;;;;;;;8.13;5.10;;;17.90;99.90;;;;;;4139080;28;20050;-71
2021/08/03 09:03:28;;;;;;;7.63;6.00;;;18.00;99.90;;;;;;4141149;28;20039;-72
2021/08/03 09:05:37;;;;;;;11.07;6.15;;;18.00;99.90;;;;;;4133488;28;20144;-72
2021/08/03 09:07:52;;;;;;;8.57;5.47;;;18.00;99.90;;;;;;4135078;28;20050;-71
2021/08/03 09:09:52;;;;;;;11.85;6.03;;;18.00;99.90;;;;;;4118119;28;20519;-71
2021/08/03 09:11:53;;;;;;;9.68;5.78;;;18.00;99.90;;;;;;4110641;28;20046;-71
2021/08/03 09:14:02;;;;;;;11.70;6.28;;;18.00;99.90;;;;;;4134835;28;20073;-71
2021/08/03 09:16:04;;;;;;;9.82;5.53;;;18.00;99.90;;;;;;4140295;28;20045;-72
2021/08/03 09:18:14;;;;;;;;;;;18.00;99.90;;;;;;4139395;28;20042;-72
2021/08/03 09:20:15;;;;;;;9.63;6.10;;;18.00;99.90;;;;;;4135786;28;19999;-72
2021/08/03 09:22:29;;;;;;;17.48;6.90;;;18.10;99.90;;;;;;4136147;28;20097;-72
2021/08/03 09:24:30;;;;;;;9.38;5.10;;;18.10;99.90;;;;;;4131166;28;20205;-72
2021/08/03 09:26:46;;;;;;;6.97;4.97;;;18.10;99.90;;;;;;4131837;28;20552;-72
2021/08/03 09:29:01;;;;;;;7.80;4.72;;;18.10;99.90;;;;;;4138895;28;20030;-72
2021/08/03 09:31:04;;;;;;;6.18;4.15;;;18.20;99.90;;;;;;4142331;28;20034;-72
2021/08/03 09:33:06;;;;;;;4.68;3.88;;;18.30;99.90;;;;;;4139656;28;20065;-72
2021/08/03 09:35:12;;;;;;;8.17;3.83;;;18.30;99.90;;;;;;4138357;28;20117;-72
2021/08/03 09:37:13;;;;;;;5.70;4.13;;;18.30;99.90;;;;;;4115165;28;20364;-72
2021/08/03 09:39:46;;;;;;;7.80;4.00;;;18.30;99.90;;;;;;4097930;28;20125;-72
2021/08/03 09:41:46;;;;;;;7.30;4.30;;;18.30;99.90;;;;;;4140458;28;20037;-72
2021/08/03 09:43:50;;;;;;;9.15;3.80;;;18.40;99.90;;;;;;4121419;28;20045;-72
2021/08/03 09:45:51;;;;;;;8.15;3.85;;;18.40;99.90;;;;;;4117387;28;20045;-72
2021/08/03 09:48:15;;;;;;;6.13;4.20;;;18.40;99.90;;;;;;4133152;28;20529;-72
2021/08/03 09:50:18;;;;;;;9.35;4.25;;;18.40;99.90;;;;;;4112478;28;20041;-72
2021/08/03 09:52:24;;;;;;;4.90;3.50;;;18.40;99.90;;;;;;4112293;28;20129;-72
2021/08/03 09:54:25;;;;;;;4.65;3.65;;;18.50;99.90;;;;;;4121462;28;20034;-72
2021/08/03 09:56:28;;;;;;;5.70;3.42;;;18.60;99.90;;;;;;4118938;28;20031;-72
2021/08/03 09:58:29;;;;;;;5.30;3.28;;;18.60;99.90;;;;;;4122229;28;20417;-72
2021/08/03 10:00:34;;;;;;;6.97;3.00;;;18.60;99.90;;;;;;4136138;28;20042;-72
2021/08/03 10:02:35;;;;;;;4.60;3.10;;;18.70;99.90;;;;;;4131196;28;20121;-71
2021/08/03 10:04:36;;;;;;;4.20;3.20;;;18.70;99.90;;;;;;4133626;28;20351;-72
2021/08/03 10:06:38;;;;;;;4.63;2.83;;;18.80;99.90;;;;;;4123333;28;20058;-72
2021/08/03 10:08:39;;;;;;;4.90;3.43;;;18.70;99.90;;;;;;4138581;28;20502;-72
2021/08/03 10:10:40;;;;;;;3.28;2.78;;;18.80;99.90;;;;;;4136530;28;20063;-72
2021/08/03 10:12:40;;;;;;;4.25;3.05;;;18.90;99.90;;;;;;4134453;28;20040;-72
2021/08/03 10:14:41;;;;;;;5.70;2.80;;;18.90;99.90;;;;;;4115960;28;20061;-72
2021/08/03 10:16:43;;;;;;;4.43;2.58;;;18.90;99.90;;;;;;4123833;28;20040;-72
2021/08/03 10:18:47;;;;;;;3.38;2.70;;;19.00;99.90;;;;;;4133958;28;20034;-72
2021/08/03 10:20:48;;;;;;;2.92;2.38;;;19.10;99.90;;;;;;4120329;28;20035;-72
2021/08/03 10:22:55;;;;;;;4.05;2.13;;;19.10;99.90;;;;;;4137140;28;20465;-72
2021/08/03 10:25:31;;;;;;;4.55;2.10;;;19.20;99.90;;;;;;4118965;28;20493;-72
2021/08/03 10:27:40;;;;;;;3.47;2.15;;;19.20;99.90;;;;;;4120966;28;20030;-72
2021/08/03 10:29:54;;;;;;;4.30;2.40;;;19.30;99.90;;;;;;4132582;28;20097;-72
2021/08/03 10:31:54;;;;;;;3.60;2.20;;;19.30;99.90;;;;;;4141050;28;20080;-72
2021/08/03 10:33:55;;;;;;;5.55;3.22;;;19.30;99.90;;;;;;4141302;28;20113;-72
2021/08/03 10:35:58;;;;;;;4.30;2.80;;;19.30;99.90;;;;;;4138164;28;20064;-72
2021/08/03 10:37:59;;;;;;;3.90;2.38;;;19.40;99.90;;;;;;4136638;28;20061;-72
2021/08/03 10:39:59;;;;;;;6.88;2.90;;;19.30;99.90;;;;;;4118279;28;20454;-72